sensor_id;sensor_type;location;lat;lon;timestamp;pressure;altitude;pressure_sealevel;temperature;humidity
38852;BME280;24605;50.092;9.182;2023-02-22T00:00:08;97871.94;;;5.79;100.00
38852;BME280;24605;50.092;9.182;2023-02-22T00:02:43;97871.81;;;5.80;100.00
38852;BME280;24605;50.092;9.182;2023-02-22T00:05:10;97870.28;;;5.88;100.00
38852;BME280;24605;50.092;9.182;2023-02-22T00:07:39;97852.25;;;5.76;100.00
38852;BME280;24605;50.092;9.182;2023-02-22T00:10:07;97853.88;;;5.77;100.00
38852;BME280;24605;50.092;9.182;2023-02-22T00:12:38;97865.50;;;5.83;100.00
38852;BME280;24605;50.092;9.182;2023-02-22T00:15:05;97864.13;;;5.79;100.00
38852;BME280;24605;50.092;9.182;2023-02-22T00:17:32;97864.69;;;5.83;100.00
38852;BME280;24605;50.092;9.182;2023-02-22T00:19:58;97849.91;;;5.73;100.00
38852;BME280;24605;50.092;9.182;2023-02-22T00:22:25;97859.63;;;5.81;100.00
38852;BME280;24605;50.092;9.182;2023-02-22T00:24:51;97856.63;;;5.76;100.00
38852;BME280;24605;50.092;9.182;2023-02-22T00:27:20;97850.47;;;5.67;100.00
38852;BME280;24605;50.092;9.182;2023-02-22T00:29:47;97853.88;;;5.77;100.00
38852;BME280;24605;50.092;9.182;2023-02-22T00:32:13;97848.16;;;5.74;100.00
38852;BME280;24605;50.092;9.182;2023-02-22T00:34:40;97848.69;;;5.77;100.00
38852;BME280;24605;50.092;9.182;2023-02-22T00:37:08;97843.91;;;5.73;100.00
38852;BME280;24605;50.092;9.182;2023-02-22T00:39:35;97848.31;;;5.72;100.00
38852;BME280;24605;50.092;9.182;2023-02-22T00:42:02;97848.53;;;5.79;100.00
38852;BME280;24605;50.092;9.182;2023-02-22T00:44:30;97836.38;;;5.79;100.00
38852;BME280;24605;50.092;9.182;2023-02-22T00:46:57;97848.22;;;5.92;100.00
38852;BME280;24605;50.092;9.182;2023-02-22T00:49:23;97836.31;;;5.89;100.00
38852;BME280;24605;50.092;9.182;2023-02-22T00:51:50;97819.91;;;5.89;100.00
38852;BME280;24605;50.092;9.182;2023-02-22T00:54:16;97835.09;;;5.93;100.00
38852;BME280;24605;50.092;9.182;2023-02-22T00:56:44;97830.44;;;5.97;100.00
38852;BME280;24605;50.092;9.182;2023-02-22T00:59:11;97825.91;;;5.89;100.00
38852;BME280;24605;50.092;9.182;2023-02-22T01:01:39;97831.22;;;5.97;100.00
38852;BME280;24605;50.092;9.182;2023-02-22T01:04:05;97827.09;;;6.15;100.00
38852;BME280;24605;50.092;9.182;2023-02-22T01:06:32;97830.13;;;6.10;100.00
38852;BME280;24605;50.092;9.182;2023-02-22T01:08:59;97805.34;;;6.06;100.00
38852;BME280;24605;50.092;9.182;2023-02-22T01:11:27;97820.34;;;6.22;100.00
38852;BME280;24605;50.092;9.182;2023-02-22T01:13:53;97822.25;;;6.30;100.00
38852;BME280;24605;50.092;9.182;2023-02-22T01:16:22;97824.44;;;6.24;100.00
38852;BME280;24605;50.092;9.182;2023-02-22T01:18:50;97821.56;;;6.27;100.00
38852;BME280;24605;50.092;9.182;2023-02-22T01:21:16;97816.94;;;6.21;100.00
38852;BME280;24605;50.092;9.182;2023-02-22T01:23:43;97818.94;;;6.00;100.00
38852;BME280;24605;50.092;9.182;2023-02-22T01:26:10;97817.97;;;5.91;100.00
38852;BME280;24605;50.092;9.182;2023-02-22T01:28:37;97814.97;;;5.86;100.00
38852;BME280;24605;50.092;9.182;2023-02-22T01:31:04;97799.63;;;5.92;100.00
38852;BME280;24605;50.092;9.182;2023-02-22T01:33:31;97810.34;;;5.79;100.00
38852;BME280;24605;50.092;9.182;2023-02-22T01:35:59;97805.19;;;5.60;100.00
38852;BME280;24605;50.092;9.182;2023-02-22T01:38:26;97806.81;;;5.71;100.00
38852;BME280;24605;50.092;9.182;2023-02-22T01:40:52;97802.97;;;5.65;100.00
38852;BME280;24605;50.092;9.182;2023-02-22T01:43:21;97793.56;;;5.54;100.00
38852;BME280;24605;50.092;9.182;2023-02-22T01:45:52;97798.19;;;5.60;100.00
38852;BME280;24605;50.092;9.182;2023-02-22T01:48:25;97801.66;;;5.61;100.00
38852;BME280;24605;50.092;9.182;2023-02-22T01:50:55;97791.03;;;5.82;100.00
38852;BME280;24605;50.092;9.182;2023-02-22T01:53:26;97794.31;;;5.84;100.00
38852;BME280;24605;50.092;9.182;2023-02-22T01:55:55;97780.78;;;5.71;100.00
38852;BME280;24605;50.092;9.182;2023-02-22T01:58:23;97787.50;;;5.73;100.00
38852;BME280;24605;50.092;9.182;2023-02-22T02:00:51;97781.25;;;5.56;100.00
38852;BME280;24605;50.092;9.182;2023-02-22T02:03:20;97785.38;;;5.49;100.00
38852;BME280;24605;50.092;9.182;2023-02-22T02:05:49;97777.75;;;5.38;100.00
38852;BME280;24605;50.092;9.182;2023-02-22T02:08:26;97764.09;;;5.16;100.00
38852;BME280;24605;50.092;9.182;2023-02-22T02:10:55;97771.47;;;5.21;100.00
38852;BME280;24605;50.092;9.182;2023-02-22T02:13:23;97772.84;;;5.05;100.00
38852;BME280;24605;50.092;9.182;2023-02-22T02:15:52;97769.44;;;4.95;100.00
38852;BME280;24605;50.092;9.182;2023-02-22T02:18:19;97777.78;;;4.98;100.00
38852;BME280;24605;50.092;9.182;2023-02-22T02:20:59;97774.50;;;5.06;100.00
38852;BME280;24605;50.092;9.182;2023-02-22T02:23:57;97770.41;;;5.04;100.00
38852;BME280;24605;50.092;9.182;2023-02-22T02:26:54;97765.38;;;5.02;100.00
38852;BME280;24605;50.092;9.182;2023-02-22T02:32:35;97761.66;;;4.95;100.00
38852;BME280;24605;50.092;9.182;2023-02-22T02:35:08;97743.91;;;4.80;100.00
38852;BME280;24605;50.092;9.182;2023-02-22T02:37:44;97743.34;;;4.77;100.00
38852;BME280;24605;50.092;9.182;2023-02-22T02:40:18;97749.22;;;4.89;100.00
38852;BME280;24605;50.092;9.182;2023-02-22T02:42:52;97750.19;;;4.78;100.00
38852;BME280;24605;50.092;9.182;2023-02-22T02:45:25;97740.75;;;4.77;100.00
38852;BME280;24605;50.092;9.182;2023-02-22T02:47:58;97724.63;;;4.63;100.00
38852;BME280;24605;50.092;9.182;2023-02-22T02:50:29;97733.50;;;4.80;100.00
38852;BME280;24605;50.092;9.182;2023-02-22T02:53:00;97730.50;;;4.75;100.00
38852;BME280;24605;50.092;9.182;2023-02-22T02:55:29;97723.13;;;4.61;100.00
38852;BME280;24605;50.092;9.182;2023-02-22T02:57:56;97725.16;;;4.57;100.00
38852;BME280;24605;50.092;9.182;2023-02-22T03:00:28;97737.34;;;4.66;100.00
38852;BME280;24605;50.092;9.182;2023-02-22T03:03:08;97729.13;;;4.71;100.00
38852;BME280;24605;50.092;9.182;2023-02-22T03:06:00;97721.06;;;4.64;100.00
38852;BME280;24605;50.092;9.182;2023-02-22T03:08:33;97732.13;;;4.66;100.00
38852;BME280;24605;50.092;9.182;2023-02-22T03:11:07;97722.19;;;4.72;100.00
38852;BME280;24605;50.092;9.182;2023-02-22T03:13:44;97714.22;;;4.83;100.00
38852;BME280;24605;50.092;9.182;2023-02-22T03:16:20;97714.34;;;4.91;100.00
38852;BME280;24605;50.092;9.182;2023-02-22T03:18:55;97715.69;;;5.05;100.00
38852;BME280;24605;50.092;9.182;2023-02-22T03:21:28;97708.56;;;5.17;100.00
38852;BME280;24605;50.092;9.182;2023-02-22T03:24:01;97709.81;;;5.13;100.00
38852;BME280;24605;50.092;9.182;2023-02-22T03:26:34;97719.25;;;5.14;100.00
38852;BME280;24605;50.092;9.182;2023-02-22T03:29:02;97700.53;;;5.10;100.00
38852;BME280;24605;50.092;9.182;2023-02-22T03:31:34;97696.41;;;5.17;100.00
38852;BME280;24605;50.092;9.182;2023-02-22T03:34:07;97709.09;;;5.21;100.00
38852;BME280;24605;50.092;9.182;2023-02-22T03:36:39;97702.25;;;5.29;100.00
38852;BME280;24605;50.092;9.182;2023-02-22T03:39:10;97692.44;;;5.23;100.00
38852;BME280;24605;50.092;9.182;2023-02-22T03:41:42;97694.34;;;5.21;100.00
38852;BME280;24605;50.092;9.182;2023-02-22T03:44:18;97698.69;;;5.21;100.00
38852;BME280;24605;50.092;9.182;2023-02-22T03:46:48;97697.06;;;5.29;100.00
38852;BME280;24605;50.092;9.182;2023-02-22T03:49:22;97699.66;;;5.29;100.00
38852;BME280;24605;50.092;9.182;2023-02-22T03:51:51;97701.81;;;5.34;100.00
38852;BME280;24605;50.092;9.182;2023-02-22T03:54:17;97686.41;;;5.23;100.00
38852;BME280;24605;50.092;9.182;2023-02-22T03:56:48;97700.81;;;5.45;100.00
38852;BME280;24605;50.092;9.182;2023-02-22T03:59:16;97706.56;;;5.48;100.00
38852;BME280;24605;50.092;9.182;2023-02-22T04:01:43;97699.75;;;5.38;100.00
38852;BME280;24605;50.092;9.182;2023-02-22T04:04:09;97702.22;;;5.39;100.00
38852;BME280;24605;50.092;9.182;2023-02-22T04:06:37;97700.72;;;5.37;100.00
38852;BME280;24605;50.092;9.182;2023-02-22T04:09:04;97686.38;;;5.32;100.00
38852;BME280;24605;50.092;9.182;2023-02-22T04:11:32;97693.00;;;5.55;100.00
38852;BME280;24605;50.092;9.182;2023-02-22T04:13:59;97697.47;;;5.62;100.00
38852;BME280;24605;50.092;9.182;2023-02-22T04:16:25;97692.69;;;5.68;100.00
38852;BME280;24605;50.092;9.182;2023-02-22T04:18:52;97684.03;;;5.67;100.00
38852;BME280;24605;50.092;9.182;2023-02-22T04:21:18;97666.78;;;5.66;100.00
38852;BME280;24605;50.092;9.182;2023-02-22T04:23:46;97682.84;;;5.89;100.00
38852;BME280;24605;50.092;9.182;2023-02-22T04:26:13;97652.25;;;5.73;100.00
38852;BME280;24605;50.092;9.182;2023-02-22T04:28:40;97685.59;;;5.88;100.00
38852;BME280;24605;50.092;9.182;2023-02-22T04:31:06;97662.38;;;5.76;100.00
38852;BME280;24605;50.092;9.182;2023-02-22T04:33:33;97681.50;;;5.85;100.00
38852;BME280;24605;50.092;9.182;2023-02-22T04:35:59;97672.09;;;5.74;100.00
38852;BME280;24605;50.092;9.182;2023-02-22T04:38:26;97670.34;;;5.65;100.00
38852;BME280;24605;50.092;9.182;2023-02-22T04:40:54;97659.63;;;5.50;100.00
38852;BME280;24605;50.092;9.182;2023-02-22T04:43:21;97661.72;;;5.37;100.00
38852;BME280;24605;50.092;9.182;2023-02-22T04:45:48;97673.66;;;5.29;100.00
38852;BME280;24605;50.092;9.182;2023-02-22T04:48:14;97667.00;;;5.17;100.00
38852;BME280;24605;50.092;9.182;2023-02-22T04:50:41;97639.19;;;4.90;100.00
38852;BME280;24605;50.092;9.182;2023-02-22T04:53:08;97660.34;;;5.05;100.00
38852;BME280;24605;50.092;9.182;2023-02-22T04:55:34;97660.66;;;5.29;100.00
38852;BME280;24605;50.092;9.182;2023-02-22T04:58:02;97664.69;;;5.14;100.00
38852;BME280;24605;50.092;9.182;2023-02-22T05:00:29;97649.84;;;4.96;100.00
38852;BME280;24605;50.092;9.182;2023-02-22T05:02:55;97658.28;;;4.98;100.00
38852;BME280;24605;50.092;9.182;2023-02-22T05:05:22;97660.75;;;4.90;100.00
38852;BME280;24605;50.092;9.182;2023-02-22T05:07:49;97658.72;;;4.84;100.00
38852;BME280;24605;50.092;9.182;2023-02-22T05:10:16;97649.84;;;4.86;100.00
38852;BME280;24605;50.092;9.182;2023-02-22T05:12:43;97648.50;;;4.73;100.00
38852;BME280;24605;50.092;9.182;2023-02-22T05:15:15;97655.75;;;4.69;100.00
38852;BME280;24605;50.092;9.182;2023-02-22T05:17:42;97656.69;;;4.68;100.00
38852;BME280;24605;50.092;9.182;2023-02-22T05:20:15;97658.22;;;4.70;100.00
38852;BME280;24605;50.092;9.182;2023-02-22T05:22:42;97649.72;;;4.78;100.00
38852;BME280;24605;50.092;9.182;2023-02-22T05:25:09;97644.28;;;4.62;100.00
38852;BME280;24605;50.092;9.182;2023-02-22T05:27:36;97649.91;;;4.67;100.00
38852;BME280;24605;50.092;9.182;2023-02-22T05:30:03;97606.72;;;4.46;100.00
38852;BME280;24605;50.092;9.182;2023-02-22T05:32:34;97641.38;;;4.84;100.00
38852;BME280;24605;50.092;9.182;2023-02-22T05:35:01;97646.72;;;4.73;100.00
38852;BME280;24605;50.092;9.182;2023-02-22T05:37:27;97647.00;;;4.70;100.00
38852;BME280;24605;50.092;9.182;2023-02-22T05:39:54;97647.41;;;4.65;100.00
38852;BME280;24605;50.092;9.182;2023-02-22T05:42:20;97644.00;;;4.65;100.00
38852;BME280;24605;50.092;9.182;2023-02-22T05:44:47;97644.97;;;4.64;100.00
38852;BME280;24605;50.092;9.182;2023-02-22T05:47:14;97651.38;;;4.60;100.00
38852;BME280;24605;50.092;9.182;2023-02-22T05:49:41;97643.06;;;4.56;100.00
38852;BME280;24605;50.092;9.182;2023-02-22T05:52:08;97646.88;;;4.62;100.00
38852;BME280;24605;50.092;9.182;2023-02-22T05:54:34;97646.31;;;4.68;100.00
38852;BME280;24605;50.092;9.182;2023-02-22T05:57:01;97641.81;;;4.70;100.00
38852;BME280;24605;50.092;9.182;2023-02-22T05:59:27;97646.72;;;4.63;100.00
38852;BME280;24605;50.092;9.182;2023-02-22T06:01:54;97637.88;;;4.46;100.00
38852;BME280;24605;50.092;9.182;2023-02-22T06:04:20;97634.19;;;4.39;100.00
38852;BME280;24605;50.092;9.182;2023-02-22T06:06:48;97643.75;;;4.48;100.00
38852;BME280;24605;50.092;9.182;2023-02-22T06:09:15;97642.25;;;4.46;100.00
38852;BME280;24605;50.092;9.182;2023-02-22T06:11:41;97644.59;;;4.39;100.00
38852;BME280;24605;50.092;9.182;2023-02-22T06:14:08;97648.41;;;4.35;100.00
38852;BME280;24605;50.092;9.182;2023-02-22T06:16:34;97646.75;;;4.34;100.00
38852;BME280;24605;50.092;9.182;2023-02-22T06:19:01;97649.63;;;4.31;100.00
38852;BME280;24605;50.092;9.182;2023-02-22T06:21:27;97638.44;;;4.20;100.00
38852;BME280;24605;50.092;9.182;2023-02-22T06:23:55;97652.34;;;4.29;100.00
38852;BME280;24605;50.092;9.182;2023-02-22T06:26:21;97648.81;;;4.30;100.00
38852;BME280;24605;50.092;9.182;2023-02-22T06:28:48;97653.31;;;4.38;100.00
38852;BME280;24605;50.092;9.182;2023-02-22T06:31:14;97658.91;;;4.43;100.00
38852;BME280;24605;50.092;9.182;2023-02-22T06:33:41;97643.06;;;4.46;100.00
38852;BME280;24605;50.092;9.182;2023-02-22T06:36:08;97652.50;;;4.67;100.00
38852;BME280;24605;50.092;9.182;2023-02-22T06:38:34;97652.50;;;4.67;100.00
38852;BME280;24605;50.092;9.182;2023-02-22T06:41:02;97661.34;;;4.74;100.00
38852;BME280;24605;50.092;9.182;2023-02-22T06:43:29;97659.56;;;4.75;100.00
38852;BME280;24605;50.092;9.182;2023-02-22T06:45:55;97645.22;;;4.61;100.00
38852;BME280;24605;50.092;9.182;2023-02-22T06:48:21;97663.00;;;4.75;100.00
38852;BME280;24605;50.092;9.182;2023-02-22T06:50:48;97662.69;;;4.78;100.00
38852;BME280;24605;50.092;9.182;2023-02-22T06:53:14;97642.94;;;4.58;100.00
38852;BME280;24605;50.092;9.182;2023-02-22T06:55:41;97665.84;;;4.82;100.00
38852;BME280;24605;50.092;9.182;2023-02-22T06:58:09;97676.50;;;4.89;100.00
38852;BME280;24605;50.092;9.182;2023-02-22T07:00:35;97667.19;;;4.96;100.00
38852;BME280;24605;50.092;9.182;2023-02-22T07:03:02;97657.44;;;5.08;100.00
38852;BME280;24605;50.092;9.182;2023-02-22T07:05:29;97671.84;;;5.40;100.00
38852;BME280;24605;50.092;9.182;2023-02-22T07:08:01;97683.47;;;5.45;100.00
38852;BME280;24605;50.092;9.182;2023-02-22T07:10:29;97679.75;;;5.48;100.00
38852;BME280;24605;50.092;9.182;2023-02-22T07:12:57;97673.63;;;5.67;100.00
38852;BME280;24605;50.092;9.182;2023-02-22T07:15:26;97678.25;;;5.73;100.00
38852;BME280;24605;50.092;9.182;2023-02-22T07:17:53;97672.00;;;5.66;100.00
38852;BME280;24605;50.092;9.182;2023-02-22T07:20:21;97672.50;;;5.79;100.00
38852;BME280;24605;50.092;9.182;2023-02-22T07:22:49;97679.72;;;5.86;100.00
38852;BME280;24605;50.092;9.182;2023-02-22T07:25:16;97676.06;;;5.96;100.00
38852;BME280;24605;50.092;9.182;2023-02-22T07:27:42;97675.44;;;5.94;100.00
38852;BME280;24605;50.092;9.182;2023-02-22T07:30:16;97668.19;;;6.16;100.00
38852;BME280;24605;50.092;9.182;2023-02-22T07:32:45;97676.94;;;6.15;100.00
38852;BME280;24605;50.092;9.182;2023-02-22T07:35:15;97670.78;;;6.16;100.00
38852;BME280;24605;50.092;9.182;2023-02-22T07:37:42;97673.78;;;6.21;100.00
38852;BME280;24605;50.092;9.182;2023-02-22T07:40:09;97680.75;;;6.21;100.00
38852;BME280;24605;50.092;9.182;2023-02-22T07:42:52;97682.84;;;6.35;100.00
38852;BME280;24605;50.092;9.182;2023-02-22T07:45:20;97683.88;;;6.24;100.00
38852;BME280;24605;50.092;9.182;2023-02-22T07:47:48;97607.03;;;5.84;100.00
38852;BME280;24605;50.092;9.182;2023-02-22T07:50:15;97688.47;;;6.31;100.00
38852;BME280;24605;50.092;9.182;2023-02-22T07:52:44;97681.13;;;6.26;100.00
38852;BME280;24605;50.092;9.182;2023-02-22T07:55:13;97655.91;;;6.26;100.00
38852;BME280;24605;50.092;9.182;2023-02-22T07:57:41;97674.44;;;6.41;100.00
38852;BME280;24605;50.092;9.182;2023-02-22T08:00:08;97674.28;;;6.43;100.00
38852;BME280;24605;50.092;9.182;2023-02-22T08:02:35;97674.34;;;6.51;100.00
38852;BME280;24605;50.092;9.182;2023-02-22T08:05:04;97676.91;;;6.61;100.00
38852;BME280;24605;50.092;9.182;2023-02-22T08:07:31;97677.69;;;6.62;100.00
38852;BME280;24605;50.092;9.182;2023-02-22T08:09:57;97676.28;;;6.67;100.00
38852;BME280;24605;50.092;9.182;2023-02-22T08:12:23;97677.75;;;6.70;100.00
38852;BME280;24605;50.092;9.182;2023-02-22T08:14:50;97675.38;;;6.77;100.00
38852;BME280;24605;50.092;9.182;2023-02-22T08:17:16;97674.78;;;6.83;100.00
38852;BME280;24605;50.092;9.182;2023-02-22T08:19:44;97677.44;;;6.91;100.00
38852;BME280;24605;50.092;9.182;2023-02-22T08:22:12;97675.03;;;6.98;100.00
38852;BME280;24605;50.092;9.182;2023-02-22T08:24:38;97678.44;;;6.98;100.00
38852;BME280;24605;50.092;9.182;2023-02-22T08:27:05;97680.72;;;6.93;100.00
38852;BME280;24605;50.092;9.182;2023-02-22T08:29:31;97680.88;;;6.92;100.00
38852;BME280;24605;50.092;9.182;2023-02-22T08:31:58;97665.75;;;6.95;100.00
38852;BME280;24605;50.092;9.182;2023-02-22T08:34:25;97672.94;;;7.01;100.00
38852;BME280;24605;50.092;9.182;2023-02-22T08:36:53;97647.56;;;7.03;100.00
38852;BME280;24605;50.092;9.182;2023-02-22T08:39:20;97676.00;;;7.23;100.00
38852;BME280;24605;50.092;9.182;2023-02-22T08:41:47;97675.47;;;7.19;100.00
38852;BME280;24605;50.092;9.182;2023-02-22T08:44:13;97679.94;;;7.27;100.00
38852;BME280;24605;50.092;9.182;2023-02-22T08:46:40;97678.97;;;7.28;100.00
38852;BME280;24605;50.092;9.182;2023-02-22T08:49:06;97682.94;;;7.41;100.00
38852;BME280;24605;50.092;9.182;2023-02-22T08:51:33;97676.81;;;7.58;100.00
38852;BME280;24605;50.092;9.182;2023-02-22T08:54:00;97678.34;;;7.69;100.00
38852;BME280;24605;50.092;9.182;2023-02-22T08:56:29;97673.28;;;7.67;100.00
38852;BME280;24605;50.092;9.182;2023-02-22T08:58:55;97675.78;;;7.77;100.00
38852;BME280;24605;50.092;9.182;2023-02-22T09:01:22;97682.69;;;8.03;100.00
38852;BME280;24605;50.092;9.182;2023-02-22T09:03:50;97680.91;;;8.12;100.00
38852;BME280;24605;50.092;9.182;2023-02-22T09:06:16;97675.56;;;8.22;100.00
38852;BME280;24605;50.092;9.182;2023-02-22T09:08:43;97676.44;;;8.47;100.00
38852;BME280;24605;50.092;9.182;2023-02-22T09:11:10;97670.72;;;8.52;100.00
38852;BME280;24605;50.092;9.182;2023-02-22T09:13:37;97585.13;;;8.04;100.00
38852;BME280;24605;50.092;9.182;2023-02-22T09:16:05;97681.34;;;8.75;100.00
38852;BME280;24605;50.092;9.182;2023-02-22T09:18:31;97677.75;;;8.76;100.00
38852;BME280;24605;50.092;9.182;2023-02-22T09:20:58;97676.94;;;8.84;100.00
38852;BME280;24605;50.092;9.182;2023-02-22T09:23:24;97683.28;;;8.65;100.00
38852;BME280;24605;50.092;9.182;2023-02-22T09:25:51;97675.94;;;9.01;100.00
38852;BME280;24605;50.092;9.182;2023-02-22T09:28:18;97681.78;;;9.28;100.00
38852;BME280;24605;50.092;9.182;2023-02-22T09:30:46;97683.06;;;9.32;100.00
38852;BME280;24605;50.092;9.182;2023-02-22T09:33:14;97681.06;;;9.51;100.00
38852;BME280;24605;50.092;9.182;2023-02-22T09:35:42;97674.81;;;9.60;100.00
38852;BME280;24605;50.092;9.182;2023-02-22T09:38:11;97679.63;;;9.80;100.00
38852;BME280;24605;50.092;9.182;2023-02-22T09:40:40;97672.69;;;9.95;100.00
38852;BME280;24605;50.092;9.182;2023-02-22T09:43:18;97663.56;;;9.91;100.00
38852;BME280;24605;50.092;9.182;2023-02-22T09:46:00;97667.97;;;9.91;100.00
38852;BME280;24605;50.092;9.182;2023-02-22T09:48:33;97669.97;;;9.80;100.00
38852;BME280;24605;50.092;9.182;2023-02-22T09:51:01;97658.69;;;10.11;100.00
38852;BME280;24605;50.092;9.182;2023-02-22T09:53:33;97660.19;;;10.37;100.00
38852;BME280;24605;50.092;9.182;2023-02-22T09:56:06;97652.47;;;10.12;100.00
38852;BME280;24605;50.092;9.182;2023-02-22T09:58:38;97654.28;;;10.35;100.00
38852;BME280;24605;50.092;9.182;2023-02-22T10:01:18;97655.53;;;10.47;100.00
38852;BME280;24605;50.092;9.182;2023-02-22T10:03:50;97656.66;;;10.68;100.00
38852;BME280;24605;50.092;9.182;2023-02-22T10:06:23;97654.88;;;10.69;100.00
38852;BME280;24605;50.092;9.182;2023-02-22T10:08:52;97657.13;;;10.72;100.00
38852;BME280;24605;50.092;9.182;2023-02-22T10:11:30;97618.41;;;10.59;100.00
38852;BME280;24605;50.092;9.182;2023-02-22T10:14:14;97610.00;;;10.63;100.00
38852;BME280;24605;50.092;9.182;2023-02-22T10:16:52;97663.13;;;11.19;100.00
38852;BME280;24605;50.092;9.182;2023-02-22T10:19:26;97655.66;;;11.37;100.00
38852;BME280;24605;50.092;9.182;2023-02-22T10:22:26;97657.59;;;11.58;100.00
38852;BME280;24605;50.092;9.182;2023-02-22T10:25:00;97659.66;;;11.48;100.00
38852;BME280;24605;50.092;9.182;2023-02-22T10:27:31;97660.22;;;11.28;100.00
38852;BME280;24605;50.092;9.182;2023-02-22T10:30:01;97606.69;;;10.85;100.00
38852;BME280;24605;50.092;9.182;2023-02-22T10:32:39;97649.81;;;11.20;100.00
38852;BME280;24605;50.092;9.182;2023-02-22T10:35:17;97642.03;;;11.27;100.00
38852;BME280;24605;50.092;9.182;2023-02-22T10:37:46;97639.31;;;11.35;100.00
38852;BME280;24605;50.092;9.182;2023-02-22T10:40:15;97647.78;;;11.52;100.00
38852;BME280;24605;50.092;9.182;2023-02-22T10:42:44;97647.09;;;11.58;100.00
38852;BME280;24605;50.092;9.182;2023-02-22T10:45:20;97625.34;;;11.65;100.00
38852;BME280;24605;50.092;9.182;2023-02-22T10:47:54;97646.88;;;11.75;100.00
38852;BME280;24605;50.092;9.182;2023-02-22T10:50:23;97643.13;;;11.99;100.00
38852;BME280;24605;50.092;9.182;2023-02-22T10:52:50;97639.88;;;11.97;100.00
38852;BME280;24605;50.092;9.182;2023-02-22T10:55:16;97638.50;;;12.01;99.37
38852;BME280;24605;50.092;9.182;2023-02-22T10:57:45;97633.00;;;12.18;100.00
38852;BME280;24605;50.092;9.182;2023-02-22T11:00:14;97641.97;;;12.23;98.45
38852;BME280;24605;50.092;9.182;2023-02-22T11:02:51;97635.31;;;11.91;100.00
38852;BME280;24605;50.092;9.182;2023-02-22T11:05:30;97636.59;;;11.95;100.00
38852;BME280;24605;50.092;9.182;2023-02-22T11:08:14;97630.63;;;12.01;98.59
38852;BME280;24605;50.092;9.182;2023-02-22T11:10:41;97637.03;;;12.14;98.90
38852;BME280;24605;50.092;9.182;2023-02-22T11:13:22;97630.91;;;12.06;92.97
38852;BME280;24605;50.092;9.182;2023-02-22T11:15:50;97630.91;;;12.06;93.72
38852;BME280;24605;50.092;9.182;2023-02-22T11:18:24;97633.66;;;12.42;95.06
38852;BME280;24605;50.092;9.182;2023-02-22T11:20:59;97633.78;;;12.33;95.16
38852;BME280;24605;50.092;9.182;2023-02-22T11:23:26;97624.41;;;12.24;95.97
38852;BME280;24605;50.092;9.182;2023-02-22T11:26:00;97622.09;;;12.36;95.36
38852;BME280;24605;50.092;9.182;2023-02-22T11:28:30;97618.34;;;12.52;89.88
38852;BME280;24605;50.092;9.182;2023-02-22T11:31:09;97614.50;;;12.76;90.44
38852;BME280;24605;50.092;9.182;2023-02-22T11:33:37;97611.44;;;12.73;88.91
38852;BME280;24605;50.092;9.182;2023-02-22T11:36:05;97605.28;;;12.59;88.81
38852;BME280;24605;50.092;9.182;2023-02-22T11:38:35;97605.97;;;12.46;87.56
38852;BME280;24605;50.092;9.182;2023-02-22T11:41:10;97602.84;;;12.57;87.35
38852;BME280;24605;50.092;9.182;2023-02-22T11:43:38;97600.63;;;12.61;86.88
38852;BME280;24605;50.092;9.182;2023-02-22T11:46:10;97571.56;;;12.19;86.15
38852;BME280;24605;50.092;9.182;2023-02-22T11:48:41;97576.44;;;12.44;87.27
38852;BME280;24605;50.092;9.182;2023-02-22T11:51:16;97586.91;;;12.65;86.66
38852;BME280;24605;50.092;9.182;2023-02-22T11:53:58;97582.38;;;12.81;86.34
38852;BME280;24605;50.092;9.182;2023-02-22T11:56:30;97554.75;;;12.98;85.38
38852;BME280;24605;50.092;9.182;2023-02-22T11:59:03;97581.00;;;13.20;85.22
38852;BME280;24605;50.092;9.182;2023-02-22T12:01:38;97585.69;;;12.96;85.20
38852;BME280;24605;50.092;9.182;2023-02-22T12:04:26;97578.03;;;12.66;87.10
38852;BME280;24605;50.092;9.182;2023-02-22T12:07:08;97575.47;;;12.80;85.96
38852;BME280;24605;50.092;9.182;2023-02-22T12:09:43;97542.59;;;12.62;85.84
38852;BME280;24605;50.092;9.182;2023-02-22T12:12:16;97587.28;;;12.62;86.97
38852;BME280;24605;50.092;9.182;2023-02-22T12:14:51;97577.06;;;12.74;86.74
38852;BME280;24605;50.092;9.182;2023-02-22T12:17:32;97575.25;;;12.75;85.99
38852;BME280;24605;50.092;9.182;2023-02-22T12:20:14;97575.31;;;12.88;85.98
38852;BME280;24605;50.092;9.182;2023-02-22T12:22:53;97545.72;;;13.14;84.19
38852;BME280;24605;50.092;9.182;2023-02-22T12:25:24;97575.31;;;13.23;83.54
38852;BME280;24605;50.092;9.182;2023-02-22T12:27:56;97560.19;;;13.32;83.25
38852;BME280;24605;50.092;9.182;2023-02-22T12:30:26;97564.25;;;13.35;81.79
38852;BME280;24605;50.092;9.182;2023-02-22T12:32:56;97572.56;;;13.38;80.59
38852;BME280;24605;50.092;9.182;2023-02-22T12:35:26;97572.03;;;13.50;78.61
38852;BME280;24605;50.092;9.182;2023-02-22T12:38:00;97560.72;;;13.62;77.02
38852;BME280;24605;50.092;9.182;2023-02-22T12:40:34;97564.34;;;13.13;77.56
38852;BME280;24605;50.092;9.182;2023-02-22T12:43:07;97568.59;;;13.14;77.06
38852;BME280;24605;50.092;9.182;2023-02-22T12:45:40;97566.31;;;13.04;77.78
38852;BME280;24605;50.092;9.182;2023-02-22T12:48:22;97572.50;;;13.25;77.80
38852;BME280;24605;50.092;9.182;2023-02-22T12:50:54;97572.66;;;13.52;75.48
38852;BME280;24605;50.092;9.182;2023-02-22T12:53:27;97571.84;;;13.58;76.22
38852;BME280;24605;50.092;9.182;2023-02-22T12:56:01;97566.44;;;13.73;75.22
38852;BME280;24605;50.092;9.182;2023-02-22T12:58:34;97571.16;;;13.98;74.70
38852;BME280;24605;50.092;9.182;2023-02-22T13:01:05;97565.69;;;13.92;71.87
38852;BME280;24605;50.092;9.182;2023-02-22T13:03:37;97569.88;;;13.73;71.40
38852;BME280;24605;50.092;9.182;2023-02-22T13:06:21;97570.94;;;13.37;71.97
38852;BME280;24605;50.092;9.182;2023-02-22T13:09:01;97561.78;;;13.26;72.72
38852;BME280;24605;50.092;9.182;2023-02-22T13:11:36;97559.72;;;13.63;71.25
38852;BME280;24605;50.092;9.182;2023-02-22T13:14:15;97560.50;;;13.51;70.93
38852;BME280;24605;50.092;9.182;2023-02-22T13:16:51;97562.34;;;13.63;71.59